Time;durP1;ratioP1;P1;durP2;ratioP2;P2;SDS_P1;SDS_P2;PMS_P1;PMS_P2;Temp;Humidity;BMP_temperature;BMP_pressure;BME280_temperature;BME280_humidity;BME280_pressure;Samples;Min_cycle;Max_cycle;Signal;HPM_P1;HPM_P2
2022/09/16 00:00:16;;;;;;;2.47;2.28;;;;;;;15.24;92.35;98078.66;4153222;28;20256;-49
2022/09/16 00:02:17;;;;;;;4.85;1.88;;;;;;;15.26;92.13;98078.38;4152575;28;20291;-48
2022/09/16 00:04:19;;;;;;;3.83;1.58;;;;;;;15.16;92.58;98082.03;4153003;28;20204;-49
2022/09/16 00:06:24;;;;;;;6.65;1.67;;;;;;;15.10;92.95;98083.19;4167909;28;20959;-49
2022/09/16 00:08:25;;;;;;;3.08;2.03;;;;;;;15.05;93.22;98080.50;4166634;28;20212;-49
2022/09/16 00:10:27;;;;;;;5.78;2.25;;;;;;;15.03;93.10;98085.47;4166673;28;20294;-49
2022/09/16 00:12:29;;;;;;;4.13;1.90;;;;;;;15.03;93.38;98090.16;4165723;28;20701;-48
2022/09/16 00:14:30;;;;;;;2.58;1.90;;;;;;;15.07;93.38;98081.03;4134737;28;20592;-49
2022/09/16 00:16:32;;;;;;;3.85;1.70;;;;;;;15.15;93.27;98091.41;4159933;28;20701;-49
2022/09/16 00:18:34;;;;;;;6.47;2.08;;;;;;;15.06;93.43;98090.41;4166132;28;20216;-49
2022/09/16 00:20:36;;;;;;;5.97;1.73;;;;;;;15.05;93.78;98083.25;4153096;28;20220;-49
2022/09/16 00:22:38;;;;;;;7.20;2.00;;;;;;;15.00;93.91;98091.56;4185907;28;20207;-48
2022/09/16 00:24:39;;;;;;;2.97;1.83;;;;;;;14.96;94.04;98090.50;4186578;28;20230;-48
2022/09/16 00:26:42;;;;;;;3.10;1.58;;;;;;;14.96;93.87;98087.72;4159565;28;20205;-48
2022/09/16 00:28:47;;;;;;;4.82;2.10;;;;;;;14.92;94.31;98088.59;4167456;28;20379;-49
2022/09/16 00:30:49;;;;;;;7.57;2.00;;;;;;;14.86;94.43;98084.25;4157241;28;20368;-49
2022/09/16 00:32:51;;;;;;;3.97;2.10;;;;;;;14.88;94.38;98088.34;4181780;28;20208;-49
2022/09/16 00:34:53;;;;;;;2.25;2.05;;;;;;;14.89;94.25;98083.69;4150997;28;20209;-48
2022/09/16 00:36:55;;;;;;;2.55;2.33;;;;;;;14.91;93.79;98078.69;4152368;28;20352;-48
2022/09/16 00:38:56;;;;;;;4.28;1.90;;;;;;;14.83;93.73;98082.88;4164656;28;20231;-49
2022/09/16 00:40:58;;;;;;;3.53;1.88;;;;;;;14.76;94.13;98076.88;4156108;28;20631;-49
2022/09/16 00:43:00;;;;;;;2.53;2.15;;;;;;;14.75;94.49;98078.00;4166446;28;20669;-49
2022/09/16 00:45:13;;;;;;;7.20;2.10;;;;;;;14.74;94.64;98070.00;4154000;28;20659;-49
2022/09/16 00:47:17;;;;;;;2.30;2.10;;;;;;;14.66;95.00;98085.22;4156657;28;20295;-49
2022/09/16 00:49:24;;;;;;;7.28;1.95;;;;;;;14.62;95.31;98073.13;4140936;28;20305;-48
2022/09/16 00:51:26;;;;;;;3.38;1.88;;;;;;;14.60;95.49;98080.03;4167064;28;20678;-49
2022/09/16 00:53:30;;;;;;;4.95;2.10;;;;;;;14.67;95.12;98064.84;4165196;28;20200;-49
2022/09/16 00:55:34;;;;;;;6.57;1.80;;;;;;;14.37;95.93;98070.53;4152815;28;20259;-48
2022/09/16 00:57:36;;;;;;;4.63;2.22;;;;;;;14.49;95.39;98068.28;4167271;28;20577;-49
2022/09/16 00:59:41;;;;;;;4.00;2.03;;;;;;;14.54;95.07;98064.66;4148399;28;20810;-48
2022/09/16 01:01:43;;;;;;;7.22;2.35;;;;;;;14.38;95.11;98050.16;4148452;28;20221;-49
2022/09/16 01:03:49;;;;;;;8.75;2.60;;;;;;;14.33;94.79;98030.94;4154187;28;20243;-49
2022/09/16 01:05:51;;;;;;;4.07;2.17;;;;;;;14.12;95.57;98028.56;4152117;28;20200;-49
2022/09/16 01:07:53;;;;;;;10.32;2.63;;;;;;;14.04;96.75;98031.94;4165469;28;20251;-49
2022/09/16 01:09:55;;;;;;;3.22;1.70;;;;;;;14.13;96.45;98049.47;4148596;28;20234;-48
2022/09/16 01:11:57;;;;;;;4.10;1.73;;;;;;;14.20;96.56;98053.59;4152877;28;20307;-49
2022/09/16 01:14:51;;;;;;;4.22;1.95;;;;;;;14.35;96.47;98044.41;4151134;28;20291;-48
2022/09/16 01:16:26;;;;;;;5.95;1.70;;;;;;;14.18;96.64;98028.28;4167921;28;20287;-48
2022/09/16 01:18:44;;;;;;;4.25;2.20;;;;;;;14.25;96.60;98044.50;4148208;28;20291;-49
2022/09/16 01:21:05;;;;;;;2.58;2.38;;;;;;;14.42;96.36;98056.75;4157352;28;20228;-49
2022/09/16 01:23:25;;;;;;;5.30;1.77;;;;;;;14.50;95.97;98069.91;4158238;28;20228;-60
2022/09/16 01:25:39;;;;;;;2.42;2.00;;;;;;;14.59;95.71;98079.22;4165893;28;20753;-48
2022/09/16 01:28:10;;;;;;;3.38;2.03;;;;;;;14.55;95.79;98083.66;4167615;28;20232;-49
2022/09/16 01:30:45;;;;;;;2.78;2.15;;;;;;;14.52;95.94;98087.00;4147255;28;20262;-49
2022/09/16 01:33:00;;;;;;;12.88;3.13;;;;;;;14.60;95.92;98096.56;4165416;28;20638;-49
2022/09/16 01:35:29;;;;;;;5.10;2.63;;;;;;;14.59;95.85;98101.25;4164206;28;20293;-49
2022/09/16 01:37:45;;;;;;;3.58;2.10;;;;;;;14.66;95.49;98088.00;4153608;28;20287;-49
2022/09/16 01:40:02;;;;;;;3.63;2.70;;;;;;;14.52;95.11;98084.22;4169471;28;20220;-48
2022/09/16 01:42:15;;;;;;;3.55;2.08;;;;;;;14.49;95.36;98090.28;4165964;28;20229;-49
2022/09/16 01:44:24;;;;;;;6.20;2.13;;;;;;;14.61;94.83;98087.19;4182597;28;20211;-49
2022/09/16 01:46:43;;;;;;;5.95;2.00;;;;;;;14.54;95.03;98092.19;4164736;28;20304;-49
2022/09/16 01:48:49;;;;;;;6.78;2.50;;;;;;;14.60;95.22;98091.03;4153529;28;20279;-50
2022/09/16 01:51:18;;;;;;;3.42;2.28;;;;;;;14.64;95.03;98087.44;4165490;28;20754;-49
2022/09/16 01:53:26;;;;;;;4.60;2.03;;;;;;;14.69;94.80;98086.59;4157799;28;20205;-49
2022/09/16 01:55:36;;;;;;;3.78;2.08;;;;;;;14.61;95.08;98093.53;4151995;28;20983;-49
2022/09/16 01:57:50;;;;;;;2.92;2.10;;;;;;;14.62;95.11;98095.16;4170505;28;20290;-49
2022/09/16 01:59:53;;;;;;;3.83;2.50;;;;;;;14.64;94.97;98090.19;4168305;28;20303;-49
2022/09/16 02:01:59;;;;;;;4.32;2.80;;;;;;;14.69;94.66;98094.84;4170688;28;20212;-49
2022/09/16 02:04:06;;;;;;;5.03;1.95;;;;;;;14.65;94.89;98102.03;4156805;28;20694;-49
2022/09/16 02:06:11;;;;;;;4.22;2.15;;;;;;;14.70;94.81;98094.53;4185659;28;20230;-49
2022/09/16 02:08:19;;;;;;;3.25;2.05;;;;;;;14.69;94.84;98092.91;4154630;28;20314;-49
2022/09/16 02:10:28;;;;;;;2.92;2.13;;;;;;;14.73;94.79;98080.22;4156007;28;20310;-48
2022/09/16 02:12:33;;;;;;;6.82;2.38;;;;;;;14.74;94.99;98087.38;4169619;28;20204;-49
2022/09/16 02:14:38;;;;;;;1.90;1.80;;;;;;;14.74;95.08;98092.88;4162363;28;20745;-48
2022/09/16 02:16:46;;;;;;;3.05;2.55;;;;;;;14.75;95.07;98078.00;4168697;28;20200;-49
2022/09/16 02:18:52;;;;;;;3.72;2.13;;;;;;;14.70;94.99;98078.03;4162442;28;20311;-49
2022/09/16 02:20:55;;;;;;;2.83;2.50;;;;;;;14.71;95.25;98076.91;4186692;28;20259;-48
2022/09/16 02:23:02;;;;;;;3.78;2.35;;;;;;;14.75;95.15;98066.97;4177410;28;20206;-48
2022/09/16 02:25:05;;;;;;;10.32;2.80;;;;;;;14.75;95.21;98064.22;4184376;28;20242;-49
2022/09/16 02:27:11;;;;;;;3.33;2.53;;;;;;;14.71;95.51;98065.88;4154734;28;20288;-49
2022/09/16 02:29:18;;;;;;;4.30;2.97;;;;;;;14.67;95.57;98067.59;4151355;28;20315;-49
2022/09/16 02:31:25;;;;;;;2.88;2.58;;;;;;;14.69;95.59;98084.66;4184487;28;20224;-49
2022/09/16 02:33:32;;;;;;;3.92;2.47;;;;;;;14.71;95.41;98071.41;4169890;28;20217;-49
2022/09/16 02:35:35;;;;;;;3.15;2.58;;;;;;;14.66;95.53;98082.47;4154418;28;20215;-48
2022/09/16 02:37:54;;;;;;;6.00;2.65;;;;;;;14.64;95.76;98086.63;4169030;28;20207;-48
2022/09/16 02:40:01;;;;;;;2.20;2.00;;;;;;;14.71;95.97;98087.94;4157923;28;20319;-48
2022/09/16 02:42:03;;;;;;;4.43;2.00;;;;;;;14.66;96.08;98085.22;4151666;28;20308;-49
2022/09/16 02:44:04;;;;;;;2.83;2.10;;;;;;;14.63;96.08;98090.50;4160453;28;20204;-49
2022/09/16 02:46:15;;;;;;;3.20;2.30;;;;;;;14.68;96.17;98083.00;4156362;28;20200;-48
2022/09/16 02:48:25;;;;;;;2.47;2.17;;;;;;;14.65;96.65;98086.34;4153990;28;20303;-49
2022/09/16 02:50:39;;;;;;;2.88;2.63;;;;;;;14.64;96.81;98087.44;4168040;28;20200;-48
2022/09/16 02:52:54;;;;;;;4.30;2.47;;;;;;;14.60;97.29;98074.53;4169691;28;20238;-49
2022/09/16 02:55:37;;;;;;;10.82;2.40;;;;;;;14.61;97.06;98065.97;4185061;28;20206;-48
2022/09/16 02:57:40;;;;;;;5.22;2.90;;;;;;;14.56;97.15;98068.75;4155534;28;20300;-48
2022/09/16 02:59:42;;;;;;;2.83;1.92;;;;;;;14.54;97.24;98072.91;4160263;28;20232;-49
2022/09/16 03:01:45;;;;;;;3.80;2.17;;;;;;;14.56;97.42;98070.72;4184328;28;20229;-48
2022/09/16 03:03:47;;;;;;;3.78;1.80;;;;;;;14.65;97.29;98067.06;4158588;28;20272;-49
2022/09/16 03:06:02;;;;;;;3.45;1.92;;;;;;;14.72;96.86;98062.06;4153274;28;20654;-48
2022/09/16 03:08:06;;;;;;;2.50;2.13;;;;;;;14.63;96.79;98055.50;4170477;28;20298;-48
2022/09/16 03:10:09;;;;;;;12.27;2.47;;;;;;;14.47;97.21;98065.00;4152194;28;20230;-49
2022/09/16 03:12:23;;;;;;;4.20;2.67;;;;;;;14.23;98.50;98069.53;4153120;28;20718;-49
2022/09/16 03:14:43;;;;;;;3.67;2.50;;;;;;;14.17;98.54;98059.63;4154570;28;20292;-48
2022/09/16 03:17:07;;;;;;;3.15;2.75;;;;;;;14.26;98.38;98068.97;4152787;28;21076;-48
2022/09/16 03:19:23;;;;;;;5.47;3.08;;;;;;;14.04;99.15;98071.25;4150553;28;20266;-49
2022/09/16 03:21:43;;;;;;;9.80;3.40;;;;;;;14.09;99.67;98068.47;4152040;28;20380;-49
2022/09/16 03:23:56;;;;;;;3.72;2.78;;;;;;;14.10;99.50;98064.63;4151769;28;20292;-49
2022/09/16 03:26:03;;;;;;;9.10;3.20;;;;;;;14.17;98.83;98065.13;4166401;28;20235;-48
2022/09/16 03:28:09;;;;;;;10.85;3.17;;;;;;;13.85;99.65;98066.69;4184365;28;20289;-48
2022/09/16 03:30:11;;;;;;;4.57;3.08;;;;;;;13.68;100.00;98061.53;4158433;28;20229;-49
2022/09/16 03:32:23;;;;;;;8.15;3.05;;;;;;;13.87;99.51;98059.81;4151481;28;21007;-48
2022/09/16 03:34:28;;;;;;;4.60;2.00;;;;;;;13.68;100.00;98058.78;4159128;28;20316;-48
2022/09/16 03:36:33;;;;;;;3.83;3.53;;;;;;;13.82;99.85;98062.56;4157582;28;20205;-48
2022/09/16 03:38:36;;;;;;;6.18;2.50;;;;;;;13.76;100.00;98057.38;4167355;28;20573;-49
2022/09/16 03:40:40;;;;;;;3.25;2.95;;;;;;;13.89;100.00;98052.09;4142538;28;20264;-49
2022/09/16 03:42:42;;;;;;;2.90;2.58;;;;;;;13.98;99.93;98057.81;4166337;28;20231;-48
2022/09/16 03:44:44;;;;;;;3.90;2.85;;;;;;;14.07;99.13;98053.34;4151073;28;20229;-48
2022/09/16 03:46:46;;;;;;;4.72;2.95;;;;;;;13.83;99.80;98050.47;4186584;28;21284;-49
2022/09/16 03:48:48;;;;;;;5.30;3.10;;;;;;;13.89;99.99;98046.59;4156013;28;20844;-48
2022/09/16 03:50:50;;;;;;;5.97;3.03;;;;;;;13.90;99.99;98042.72;4157081;28;20759;-49
2022/09/16 03:52:51;;;;;;;4.88;2.92;;;;;;;13.68;100.00;98049.69;4159170;28;20222;-48
2022/09/16 03:54:53;;;;;;;6.47;2.75;;;;;;;13.63;100.00;98041.50;4158470;28;20210;-48
2022/09/16 03:56:55;;;;;;;4.22;2.53;;;;;;;13.59;100.00;98052.22;4168795;28;20210;-48
2022/09/16 03:58:56;;;;;;;9.75;2.80;;;;;;;13.75;100.00;98051.06;4169025;28;20281;-48
2022/09/16 04:00:58;;;;;;;4.32;2.17;;;;;;;13.79;100.00;98051.31;4155342;28;20304;-48
2022/09/16 04:03:00;;;;;;;5.50;3.25;;;;;;;13.86;100.00;98049.91;4152658;28;20235;-49
2022/09/16 04:05:02;;;;;;;4.20;2.55;;;;;;;13.96;100.00;98052.59;4154792;28;20205;-49
2022/09/16 04:07:04;;;;;;;9.57;3.05;;;;;;;14.04;99.52;98049.25;4158119;28;20209;-48
2022/09/16 04:09:12;;;;;;;7.00;2.40;;;;;;;13.97;99.35;98045.19;4184743;28;20311;-49
2022/09/16 04:11:13;;;;;;;2.40;1.77;;;;;;;14.00;99.52;98053.69;4182844;28;20199;-49
2022/09/16 04:13:15;;;;;;;5.82;2.28;;;;;;;14.02;99.49;98051.47;4152316;28;20683;-49
2022/09/16 04:15:17;;;;;;;5.03;3.15;;;;;;;14.09;99.35;98051.16;4159719;28;20207;-48
2022/09/16 04:17:18;;;;;;;3.15;2.58;;;;;;;14.12;99.21;98045.91;4161228;28;20295;-49
2022/09/16 04:19:20;;;;;;;4.18;2.60;;;;;;;14.15;99.12;98039.84;4153267;28;20246;-49
2022/09/16 04:21:22;;;;;;;4.22;2.65;;;;;;;14.16;98.98;98046.97;4152871;28;20240;-49
2022/09/16 04:23:25;;;;;;;6.63;2.97;;;;;;;14.19;98.93;98040.13;4183616;28;20259;-49
2022/09/16 04:25:27;;;;;;;2.60;2.28;;;;;;;14.26;98.34;98041.47;4152427;28;20295;-48
2022/09/16 04:27:28;;;;;;;2.90;2.65;;;;;;;14.23;98.44;98039.25;4151836;28;20638;-48
2022/09/16 04:29:31;;;;;;;3.15;2.25;;;;;;;14.28;98.29;98039.25;4183215;28;20665;-49
2022/09/16 04:31:32;;;;;;;6.20;2.78;;;;;;;14.26;98.28;98041.47;4153768;28;20361;-48
2022/09/16 04:33:34;;;;;;;5.25;2.72;;;;;;;14.23;98.58;98042.00;4140845;28;20582;-49
2022/09/16 04:35:36;;;;;;;5.40;2.20;;;;;;;14.33;97.88;98033.72;4184079;28;20223;-49
2022/09/16 04:37:38;;;;;;;3.00;2.25;;;;;;;14.30;97.69;98037.00;4166092;28;20223;-49
2022/09/16 04:39:40;;;;;;;6.55;2.47;;;;;;;14.27;97.78;98042.25;4183543;28;20744;-48
2022/09/16 04:41:42;;;;;;;4.28;2.45;;;;;;;14.30;97.47;98037.00;4167781;28;20286;-48
2022/09/16 04:43:44;;;;;;;6.40;1.90;;;;;;;14.24;97.30;98046.41;4152142;28;20663;-48
2022/09/16 04:45:45;;;;;;;11.18;3.08;;;;;;;14.24;97.26;98043.66;4153327;28;20219;-48
2022/09/16 04:47:47;;;;;;;3.85;2.13;;;;;;;14.21;97.41;98038.72;4159669;28;20216;-49
2022/09/16 04:49:49;;;;;;;4.15;2.75;;;;;;;14.21;97.31;98038.72;4156464;28;20231;-48
2022/09/16 04:51:52;;;;;;;4.60;1.98;;;;;;;14.19;97.35;98046.47;4158309;28;20204;-49
2022/09/16 04:53:55;;;;;;;3.83;2.33;;;;;;;14.22;97.13;98051.38;4154197;28;20213;-49
2022/09/16 04:56:08;;;;;;;5.50;2.10;;;;;;;14.24;96.96;98046.41;4154607;28;20287;-49
2022/09/16 04:58:10;;;;;;;4.25;3.00;;;;;;;14.20;97.52;98048.09;4154203;28;20205;-49
2022/09/16 05:00:12;;;;;;;7.43;2.83;;;;;;;14.16;97.55;98043.41;4148370;28;20316;-48
2022/09/16 05:02:14;;;;;;;4.55;2.92;;;;;;;14.15;97.86;98045.34;4155545;28;20612;-48
2022/09/16 05:04:15;;;;;;;2.63;2.42;;;;;;;14.15;97.90;98050.84;4157486;28;20379;-48
2022/09/16 05:06:23;;;;;;;8.52;2.20;;;;;;;14.17;97.71;98047.81;4165924;28;20300;-49
2022/09/16 05:08:24;;;;;;;3.03;1.75;;;;;;;14.10;97.98;98053.63;4183031;28;20617;-48
2022/09/16 05:10:27;;;;;;;2.50;1.65;;;;;;;14.13;98.07;98042.06;4182168;28;20219;-48
2022/09/16 05:12:29;;;;;;;5.53;2.47;;;;;;;14.22;97.89;98053.31;4148711;28;20232;-49
2022/09/16 05:14:30;;;;;;;4.32;1.70;;;;;;;14.28;97.23;98055.75;4185046;28;20215;-48
2022/09/16 05:16:32;;;;;;;1.52;1.42;;;;;;;14.20;97.43;98048.09;4156142;28;20208;-48
2022/09/16 05:18:36;;;;;;;2.30;2.00;;;;;;;14.18;97.35;98044.78;4152476;28;20261;-49
2022/09/16 05:20:37;;;;;;;3.42;1.98;;;;;;;14.18;97.43;98044.78;4166457;28;20204;-48
2022/09/16 05:22:39;;;;;;;4.25;2.45;;;;;;;14.17;97.32;98048.63;4157262;28;20760;-49
2022/09/16 05:24:43;;;;;;;7.18;1.98;;;;;;;14.18;97.34;98050.28;4153759;28;20239;-49
2022/09/16 05:26:45;;;;;;;2.13;1.83;;;;;;;14.17;97.24;98054.13;4159169;28;20663;-49
2022/09/16 05:28:47;;;;;;;2.47;1.90;;;;;;;14.18;97.33;98050.28;4150727;28;20240;-48
2022/09/16 05:30:48;;;;;;;4.43;1.92;;;;;;;14.21;96.89;98038.72;4150397;28;20333;-48
2022/09/16 05:32:53;;;;;;;12.10;3.15;;;;;;;14.15;97.16;98045.34;4157289;28;20222;-49
2022/09/16 05:34:55;;;;;;;3.08;2.28;;;;;;;14.13;97.75;98046.72;4187025;28;20235;-48
2022/09/16 05:36:57;;;;;;;3.97;1.95;;;;;;;14.14;97.88;98049.19;4156371;28;20212;-48
2022/09/16 05:38:59;;;;;;;3.13;2.00;;;;;;;14.23;97.69;98053.03;4154316;28;20825;-48
2022/09/16 05:41:20;;;;;;;3.10;2.17;;;;;;;14.21;97.31;98049.75;4183241;28;20200;-48
2022/09/16 05:43:22;;;;;;;4.78;2.47;;;;;;;14.24;96.51;98051.09;4158813;28;20713;-49
2022/09/16 05:45:24;;;;;;;3.10;1.55;;;;;;;14.21;96.48;98058.00;4153701;28;20307;-49
2022/09/16 05:47:32;;;;;;;2.08;1.85;;;;;;;14.22;96.29;98059.63;4154661;28;20283;-51
2022/09/16 05:49:34;;;;;;;3.42;1.80;;;;;;;14.22;95.94;98056.88;4157594;28;20232;-48
2022/09/16 05:51:37;;;;;;;8.57;1.50;;;;;;;14.22;95.99;98056.88;4119140;28;20271;-48
2022/09/16 05:53:39;;;;;;;3.65;1.88;;;;;;;14.18;96.07;98061.31;4138269;28;20233;-48
2022/09/16 05:55:40;;;;;;;3.80;1.88;;;;;;;14.25;95.44;98061.84;4145564;28;20205;-49
2022/09/16 05:57:42;;;;;;;7.03;2.22;;;;;;;14.11;95.05;98059.97;4136314;28;20247;-48
2022/09/16 05:59:44;;;;;;;2.85;1.40;;;;;;;14.13;95.00;98057.72;4144103;28;20734;-48
2022/09/16 06:01:46;;;;;;;2.83;1.48;;;;;;;14.17;94.26;98059.63;4156623;28;20219;-49
2022/09/16 06:03:49;;;;;;;3.53;1.80;;;;;;;14.21;94.22;98054.41;4139833;28;20241;-49
2022/09/16 06:05:50;;;;;;;3.50;1.20;;;;;;;14.10;94.16;98047.31;4141651;28;20297;-49
2022/09/16 06:07:55;;;;;;;3.25;1.48;;;;;;;14.22;93.99;98051.38;4143757;28;20225;-49
2022/09/16 06:09:57;;;;;;;4.70;1.55;;;;;;;14.08;93.84;98055.84;4170020;28;20310;-49
2022/09/16 06:11:59;;;;;;;3.47;1.52;;;;;;;14.10;93.91;98055.56;4169364;28;20638;-48
2022/09/16 06:14:06;;;;;;;2.25;1.60;;;;;;;14.20;93.69;98056.34;4154122;28;20296;-49
2022/09/16 06:16:09;;;;;;;4.80;2.38;;;;;;;14.17;93.18;98056.88;4126596;28;20229;-49
2022/09/16 06:18:14;;;;;;;2.88;1.48;;;;;;;14.18;93.64;98055.78;4167885;28;20204;-48
2022/09/16 06:20:16;;;;;;;7.32;1.95;;;;;;;14.22;93.98;98059.63;4170809;28;20804;-49
2022/09/16 06:22:18;;;;;;;11.10;1.83;;;;;;;14.31;94.34;98062.63;4135583;28;20305;-50
2022/09/16 06:24:20;;;;;;;2.78;1.85;;;;;;;14.22;92.79;98062.38;4171071;28;20254;-49
2022/09/16 06:26:24;;;;;;;3.22;1.98;;;;;;;14.33;93.30;98065.91;4142744;28;20211;-48
2022/09/16 06:28:26;;;;;;;4.82;1.77;;;;;;;14.33;93.25;98069.50;4152235;28;20210;-49
2022/09/16 06:30:28;;;;;;;5.00;2.78;;;;;;;14.30;93.75;98070.03;4153397;28;20209;-49
2022/09/16 06:32:32;;;;;;;3.75;2.35;;;;;;;14.32;93.33;98073.34;4149475;28;20224;-48
2022/09/16 06:34:34;;;;;;;3.40;1.95;;;;;;;14.35;93.98;98071.94;4138204;28;20209;-48
2022/09/16 06:36:37;;;;;;;3.10;2.05;;;;;;;14.35;94.54;98064.50;4170962;28;20261;-48
2022/09/16 06:38:46;;;;;;;3.30;2.15;;;;;;;14.37;94.82;98065.03;4128056;28;20233;-48
2022/09/16 06:40:49;;;;;;;5.78;1.88;;;;;;;14.35;94.35;98061.75;4139023;28;20250;-49
2022/09/16 06:42:54;;;;;;;4.60;1.88;;;;;;;14.43;93.18;98063.91;4141932;28;20255;-49
2022/09/16 06:45:03;;;;;;;3.10;1.83;;;;;;;13.91;91.74;98057.31;4148952;28;20756;-46
2022/09/16 06:47:04;;;;;;;2.15;1.65;;;;;;;14.10;92.27;98058.31;4143705;28;20698;-46
2022/09/16 06:49:06;;;;;;;4.82;1.98;;;;;;;14.12;94.30;98062.44;4169686;28;20295;-46
2022/09/16 06:51:21;;;;;;;6.22;1.83;;;;;;;14.12;92.66;98059.69;4137551;28;20284;-46
2022/09/16 06:53:23;;;;;;;3.88;1.80;;;;;;;14.16;93.94;98060.75;4170876;28;20630;-46
2022/09/16 06:55:25;;;;;;;3.17;1.67;;;;;;;14.12;93.58;98056.94;4152581;28;20293;-47
2022/09/16 06:57:27;;;;;;;4.18;1.50;;;;;;;14.07;92.24;98051.44;4169624;28;20617;-45
2022/09/16 06:59:29;;;;;;;5.65;1.45;;;;;;;14.11;92.83;98066.25;4137303;28;20327;-46
2022/09/16 07:01:32;;;;;;;2.60;1.25;;;;;;;14.17;93.84;98062.38;4139100;28;20240;-46
2022/09/16 07:03:37;;;;;;;1.90;1.48;;;;;;;14.09;92.22;98060.22;4142847;28;20261;-46
2022/09/16 07:05:39;;;;;;;3.75;1.63;;;;;;;14.02;91.00;98059.72;4135182;28;20621;-45
2022/09/16 07:07:40;;;;;;;3.67;2.38;;;;;;;14.14;91.64;98060.22;4140310;28;20296;-45
2022/09/16 07:09:42;;;;;;;4.05;1.85;;;;;;;14.20;93.42;98067.38;4154252;28;20516;-46
2022/09/16 07:11:44;;;;;;;5.10;1.85;;;;;;;14.30;93.84;98067.28;4137697;28;20241;-46
2022/09/16 07:13:47;;;;;;;2.13;1.70;;;;;;;14.41;93.14;98071.63;4142207;28;20689;-46
2022/09/16 07:15:48;;;;;;;4.00;2.17;;;;;;;14.41;92.89;98076.31;4151059;28;20217;-46
2022/09/16 07:18:12;;;;;;;1.45;1.30;;;;;;;14.43;92.11;98074.91;4143135;28;20227;-47
2022/09/16 07:20:13;;;;;;;4.88;1.38;;;;;;;14.54;93.53;98073.75;4143547;28;20426;-46
2022/09/16 07:22:15;;;;;;;3.35;1.60;;;;;;;14.53;93.56;98074.88;4142571;28;20260;-46
2022/09/16 07:24:17;;;;;;;4.22;1.48;;;;;;;14.57;91.19;98075.09;4170859;28;20247;-47
2022/09/16 07:26:21;;;;;;;3.78;1.17;;;;;;;14.56;92.47;98077.03;4144045;28;20276;-46
2022/09/16 07:28:23;;;;;;;11.80;2.20;;;;;;;14.55;92.11;98075.38;4137930;28;20221;-46
2022/09/16 07:30:27;;;;;;;4.05;1.88;;;;;;;14.52;91.91;98083.41;4168162;28;20250;-48
2022/09/16 07:32:29;;;;;;;2.00;1.38;;;;;;;14.45;91.83;98082.91;4143578;28;20214;-48
2022/09/16 07:34:30;;;;;;;3.60;1.60;;;;;;;14.37;91.15;98087.06;4138895;28;20252;-48
2022/09/16 07:36:47;;;;;;;1.75;1.13;;;;;;;14.36;90.73;98085.41;4154087;28;20622;-48
2022/09/16 07:38:50;;;;;;;2.58;1.48;;;;;;;14.35;90.67;98083.78;4167261;28;20230;-48
2022/09/16 07:40:51;;;;;;;8.80;1.30;;;;;;;14.36;90.92;98087.38;4137462;28;20202;-48
2022/09/16 07:42:53;;;;;;;3.17;1.33;;;;;;;14.33;90.71;98097.00;4144551;28;20316;-47
2022/09/16 07:44:55;;;;;;;1.83;1.00;;;;;;;14.39;92.17;98093.13;4166924;28;20211;-48
2022/09/16 07:46:56;;;;;;;3.72;1.27;;;;;;;14.57;90.67;98103.44;4152141;28;20233;-47
2022/09/16 07:49:00;;;;;;;2.40;1.08;;;;;;;14.51;89.61;98099.09;4169736;28;20251;-48
2022/09/16 07:51:13;;;;;;;3.33;1.27;;;;;;;14.58;88.30;98107.84;4138877;28;20216;-48
2022/09/16 07:53:14;;;;;;;5.60;1.35;;;;;;;14.55;89.19;98113.09;4135678;28;20816;-49
2022/09/16 07:55:16;;;;;;;2.80;1.00;;;;;;;14.51;90.37;98099.09;4138483;28;20202;-47
2022/09/16 07:57:18;;;;;;;3.03;1.23;;;;;;;14.51;89.63;98099.09;4153504;28;20668;-47
2022/09/16 07:59:20;;;;;;;6.88;1.50;;;;;;;14.54;88.99;98104.03;4168173;28;20228;-47
2022/09/16 08:01:22;;;;;;;2.15;0.85;;;;;;;14.48;88.64;98099.66;4139355;28;20280;-48
2022/09/16 08:03:24;;;;;;;5.78;0.93;;;;;;;14.51;88.43;98096.31;4132680;28;20244;-45
2022/09/16 08:05:26;;;;;;;3.75;1.52;;;;;;;14.56;89.12;98096.31;4171194;28;20725;-49
2022/09/16 08:07:28;;;;;;;3.83;1.02;;;;;;;14.62;89.80;98105.38;4151524;28;20304;-47
2022/09/16 08:09:29;;;;;;;1.60;1.00;;;;;;;14.70;88.28;98108.31;4153353;28;20667;-46
2022/09/16 08:11:47;;;;;;;2.53;0.90;;;;;;;14.62;85.91;98111.69;4144003;28;20677;-46
2022/09/16 08:13:49;;;;;;;5.60;1.00;;;;;;;14.57;87.93;98119.97;4168739;28;20208;-47
2022/09/16 08:15:52;;;;;;;3.28;0.90;;;;;;;14.52;87.18;98122.78;4142340;28;20296;-47
2022/09/16 08:17:54;;;;;;;5.50;1.23;;;;;;;14.52;88.73;98114.53;4142932;28;20237;-46
2022/09/16 08:19:56;;;;;;;1.30;0.82;;;;;;;14.59;88.47;98116.94;4150139;28;20233;-46
2022/09/16 08:21:58;;;;;;;2.92;1.10;;;;;;;14.59;86.47;98114.19;4135632;28;20292;-45
2022/09/16 08:24:00;;;;;;;4.93;1.27;;;;;;;14.52;84.91;98122.78;4140791;28;20320;-47
2022/09/16 08:26:02;;;;;;;7.45;1.42;;;;;;;14.52;85.88;98122.78;4151800;28;20212;-46
2022/09/16 08:28:04;;;;;;;3.03;0.82;;;;;;;14.56;86.16;98121.09;4135698;28;20313;-46
2022/09/16 08:30:06;;;;;;;3.70;1.23;;;;;;;14.62;86.08;98125.47;4136474;28;20316;-46
2022/09/16 08:32:08;;;;;;;3.25;1.10;;;;;;;14.66;85.91;98123.78;4137871;28;20255;-46
2022/09/16 08:34:10;;;;;;;2.88;1.00;;;;;;;14.75;86.01;98127.56;4140911;28;20232;-46
2022/09/16 08:36:14;;;;;;;6.20;1.17;;;;;;;14.73;84.30;98124.28;4164998;28;20618;-46
2022/09/16 08:38:15;;;;;;;2.72;0.98;;;;;;;14.75;84.49;98124.81;4150275;28;20209;-48
2022/09/16 08:40:21;;;;;;;2.15;1.08;;;;;;;14.76;84.45;98123.69;4138750;28;20253;-46
2022/09/16 08:42:45;;;;;;;1.38;0.85;;;;;;;14.80;84.51;98127.53;4152798;28;20215;-46
2022/09/16 08:45:45;;;;;;;4.85;1.10;;;;;;;14.75;85.67;98127.56;4143788;28;20702;-47
2022/09/16 08:48:07;;;;;;;3.00;0.80;;;;;;;14.91;84.81;98129.09;4086918;28;20213;-47
2022/09/16 08:50:17;;;;;;;3.55;1.10;;;;;;;15.07;84.37;98125.13;4103010;28;20248;-46
2022/09/16 08:52:33;;;;;;;2.50;0.73;;;;;;;15.34;83.65;98124.63;4099202;28;20245;-46
2022/09/16 08:54:44;;;;;;;6.15;1.60;;;;;;;15.68;82.55;98120.69;4142649;28;20307;-46
2022/09/16 08:56:48;;;;;;;2.47;1.08;;;;;;;16.15;80.53;98122.66;4135924;28;20284;-46
2022/09/16 08:58:53;;;;;;;1.67;1.00;;;;;;;16.39;76.92;98129.81;4165622;28;20299;-46
2022/09/16 09:01:15;;;;;;;2.47;1.20;;;;;;;16.43;75.02;98119.78;4167226;28;20203;-46
2022/09/16 09:03:22;;;;;;;2.45;1.00;;;;;;;16.49;77.76;98126.91;4149819;28;20218;-46
2022/09/16 09:05:31;;;;;;;2.55;1.00;;;;;;;16.70;76.77;98121.91;4148614;28;20613;-46
2022/09/16 09:08:01;;;;;;;1.98;0.93;;;;;;;16.87;75.72;98123.03;4140973;28;20691;-46
2022/09/16 09:10:23;;;;;;;2.70;0.82;;;;;;;16.75;74.68;98125.41;4156047;28;20256;-48
2022/09/16 09:12:31;;;;;;;1.73;0.80;;;;;;;16.80;74.59;98117.06;4137875;28;20696;-46
2022/09/16 09:14:37;;;;;;;3.15;0.90;;;;;;;16.71;73.40;98124.38;4168953;28;20650;-45
2022/09/16 09:16:49;;;;;;;3.70;0.95;;;;;;;16.59;73.89;98124.00;4139839;28;20287;-45
2022/09/16 09:19:09;;;;;;;9.60;1.10;;;;;;;16.52;74.53;98126.31;4155317;28;20225;-46
2022/09/16 09:21:34;;;;;;;2.47;0.70;;;;;;;16.69;74.86;98123.84;4152420;28;20296;-46
2022/09/16 09:24:03;;;;;;;1.98;0.73;;;;;;;16.80;73.37;98130.88;4154305;28;20312;-45
2022/09/16 09:26:21;;;;;;;2.42;0.90;;;;;;;16.78;74.37;98119.31;4155555;28;20297;-46
2022/09/16 09:28:34;;;;;;;3.63;0.80;;;;;;;16.41;71.03;98115.69;4172352;28;20269;-46
2022/09/16 09:30:39;;;;;;;1.48;0.68;;;;;;;16.45;72.03;98120.34;4155126;28;20200;-45
2022/09/16 09:33:08;;;;;;;1.45;0.90;;;;;;;16.48;72.68;98113.38;4141015;28;20661;-46
2022/09/16 09:35:40;;;;;;;7.93;0.90;;;;;;;16.38;69.20;98114.38;4155244;28;20216;-46
2022/09/16 09:37:53;;;;;;;2.45;1.00;;;;;;;16.75;73.34;98113.56;4145591;28;20219;-46
2022/09/16 09:40:08;;;;;;;3.05;0.75;;;;;;;17.12;71.33;98114.34;4153039;28;20661;-45
2022/09/16 09:42:20;;;;;;;2.80;0.82;;;;;;;17.68;70.04;98117.78;4153288;28;20292;-46
2022/09/16 09:44:43;;;;;;;6.00;0.80;;;;;;;17.45;67.47;98113.25;4150782;28;20698;-46
2022/09/16 09:46:47;;;;;;;1.83;0.85;;;;;;;17.96;67.43;98109.19;4168525;28;20725;-46
2022/09/16 09:49:35;;;;;;;2.33;0.80;;;;;;;18.49;65.61;98113.09;4136598;28;20257;-45
2022/09/16 09:51:49;;;;;;;3.47;0.85;;;;;;;18.59;65.17;98106.50;4130938;28;21817;-46
2022/09/16 09:53:53;;;;;;;4.97;0.60;;;;;;;18.63;65.62;98107.50;4169850;28;20699;-46